createdAt,value
2018-09-17T00:00:42.321Z,7.20
2018-09-17T00:03:11.125Z,6.70
2018-09-17T00:05:40.331Z,6.10
2018-09-17T00:08:09.835Z,6.40
2018-09-17T00:10:38.627Z,6.30
2018-09-17T00:13:07.921Z,7.10
2018-09-17T00:15:36.701Z,8.50
2018-09-17T00:18:05.666Z,7.70
2018-09-17T00:20:34.860Z,7.13
2018-09-17T00:23:03.801Z,6.67
2018-09-17T00:25:32.352Z,7.00
2018-09-17T00:28:01.191Z,7.43
2018-09-17T00:30:30.600Z,6.87
2018-09-17T00:32:59.459Z,7.63
2018-09-17T00:35:28.471Z,8.50
2018-09-17T00:37:57.371Z,8.20
2018-09-17T00:40:26.098Z,7.77
2018-09-17T00:42:54.880Z,6.43
2018-09-17T00:45:23.878Z,7.30
2018-09-17T00:47:52.553Z,7.93
2018-09-17T00:50:21.200Z,7.90
2018-09-17T00:52:50.145Z,7.80
2018-09-17T00:55:19.821Z,7.00
2018-09-17T00:57:48.743Z,7.67
2018-09-17T01:00:17.548Z,9.07
2018-09-17T01:02:47.518Z,10.40
2018-09-17T01:05:17.556Z,9.63
2018-09-17T01:07:46.822Z,8.43
2018-09-17T01:10:15.672Z,8.53
2018-09-17T01:12:44.501Z,6.93
2018-09-17T01:15:13.491Z,7.13
2018-09-17T01:17:42.266Z,7.30
2018-09-17T01:20:11.037Z,6.10
2018-09-17T01:22:39.942Z,8.03
2018-09-17T01:25:08.875Z,7.57
2018-09-17T01:27:38.026Z,7.73
2018-09-17T01:30:07.060Z,8.80
2018-09-17T01:32:35.866Z,9.57
2018-09-17T01:35:04.448Z,8.90
2018-09-17T01:37:33.223Z,8.80
2018-09-17T01:40:02.120Z,8.10
2018-09-17T01:42:30.939Z,8.70
2018-09-17T01:44:59.751Z,7.80
2018-09-17T01:47:28.606Z,7.10
2018-09-17T01:49:58.267Z,8.40
2018-09-17T01:52:27.436Z,7.80
2018-09-17T01:54:56.357Z,8.37
2018-09-17T01:57:25.444Z,8.23
2018-09-17T01:59:54.314Z,9.37
2018-09-17T02:02:23.307Z,9.13
2018-09-17T02:04:52.204Z,8.03
2018-09-17T02:07:21.092Z,8.37
2018-09-17T02:09:50.128Z,9.97
2018-09-17T02:12:18.873Z,8.77
2018-09-17T02:19:44.110Z,9.70
2018-09-17T02:22:12.798Z,9.03
2018-09-17T02:24:41.656Z,8.00
2018-09-17T02:27:10.656Z,8.25
2018-09-17T02:29:39.600Z,8.40
2018-09-17T02:32:09.510Z,9.07
2018-09-17T02:34:38.506Z,10.60
2018-09-17T02:37:07.359Z,11.07
2018-09-17T02:39:36.715Z,10.50
2018-09-17T02:42:06.186Z,10.27
2018-09-17T02:44:35.244Z,10.10
2018-09-17T02:47:04.365Z,9.00
2018-09-17T02:49:33.516Z,9.90
2018-09-17T02:52:02.231Z,9.47
2018-09-17T02:54:31.499Z,10.27
2018-09-17T02:57:00.174Z,10.67
2018-09-17T02:59:29.468Z,11.10
2018-09-17T03:01:58.489Z,10.03
2018-09-17T03:04:27.942Z,9.73
2018-09-17T03:06:56.950Z,8.97
2018-09-17T03:09:25.938Z,9.50
2018-09-17T03:11:54.997Z,9.87
2018-09-17T03:14:30.020Z,9.83
2018-09-17T03:17:12.412Z,9.90
2018-09-17T03:19:42.203Z,10.90
2018-09-17T03:22:11.998Z,11.57
2018-09-17T03:24:40.907Z,11.40
2018-09-17T03:27:09.942Z,10.83
2018-09-17T03:29:38.823Z,10.43
2018-09-17T03:32:07.720Z,10.10
2018-09-17T03:34:36.753Z,12.60
2018-09-17T03:37:05.687Z,11.40
2018-09-17T03:39:34.673Z,11.37
2018-09-17T03:42:03.744Z,12.33
2018-09-17T03:44:32.705Z,13.50
2018-09-17T03:47:02.262Z,12.50
2018-09-17T03:49:31.573Z,11.70
2018-09-17T03:52:00.755Z,11.90
2018-09-17T03:54:29.700Z,11.77
2018-09-17T03:56:58.684Z,12.37
2018-09-17T03:59:27.595Z,10.97
2018-09-17T04:01:56.757Z,11.63
2018-09-17T04:04:25.784Z,13.60
2018-09-17T04:06:54.958Z,15.23
2018-09-17T04:09:24.418Z,16.40
2018-09-17T04:11:53.522Z,14.60
2018-09-17T04:14:22.584Z,14.43
2018-09-17T04:16:52.130Z,12.07
2018-09-17T04:19:21.063Z,14.43
2018-09-17T04:21:49.905Z,12.33
2018-09-17T04:24:18.891Z,13.43
2018-09-17T04:26:48.043Z,12.93
2018-09-17T04:29:16.619Z,13.80
2018-09-17T04:31:45.568Z,13.33
2018-09-17T04:34:14.602Z,11.60
2018-09-17T04:36:43.793Z,12.23
2018-09-17T04:39:14.591Z,14.50
2018-09-17T04:41:43.622Z,13.53
2018-09-17T04:44:12.688Z,11.83
2018-09-17T04:46:42.495Z,12.23
2018-09-17T04:49:11.403Z,12.73
2018-09-17T04:51:40.329Z,13.00
2018-09-17T04:54:09.157Z,14.60
2018-09-17T04:56:38.429Z,15.23
2018-09-17T04:59:07.968Z,15.20
2018-09-17T05:01:37.136Z,13.33
2018-09-17T05:04:06.543Z,13.00
2018-09-17T05:06:36.690Z,13.73
2018-09-17T05:09:07.592Z,14.97
2018-09-17T05:11:37.327Z,14.53
2018-09-17T05:14:06.328Z,14.30
2018-09-17T05:16:35.161Z,15.13
2018-09-17T05:19:04.333Z,12.97
2018-09-17T05:21:33.223Z,12.93
2018-09-17T05:24:02.046Z,12.37
2018-09-17T05:26:30.836Z,12.47
2018-09-17T05:28:59.742Z,11.27
2018-09-17T05:31:28.654Z,12.13
2018-09-17T05:33:57.844Z,12.70
2018-09-17T05:36:27.093Z,13.07
2018-09-17T05:38:55.816Z,13.83
2018-09-17T05:41:24.971Z,14.30
2018-09-17T05:43:53.724Z,15.13
2018-09-17T05:46:22.688Z,13.10
2018-09-17T05:48:52.177Z,13.43
2018-09-17T05:51:20.944Z,13.87
2018-09-17T05:53:49.745Z,14.40
2018-09-17T05:56:18.335Z,13.90
2018-09-17T05:58:47.405Z,12.80
2018-09-17T06:01:17.394Z,13.83
2018-09-17T06:03:46.268Z,14.17
2018-09-17T06:06:14.871Z,15.03
2018-09-17T06:08:43.658Z,14.50
2018-09-17T06:11:12.457Z,14.00
2018-09-17T06:13:41.267Z,13.80
2018-09-17T06:16:09.993Z,13.90
2018-09-17T06:18:38.649Z,13.70
2018-09-17T06:21:07.575Z,13.07
2018-09-17T06:23:36.417Z,11.73
2018-09-17T06:26:05.140Z,11.70
2018-09-17T06:28:34.625Z,12.20
2018-09-17T06:31:03.320Z,11.90
2018-09-17T06:33:31.934Z,11.20
2018-09-17T06:36:00.836Z,11.97
2018-09-17T06:38:29.742Z,12.20
2018-09-17T06:40:58.374Z,11.40
2018-09-17T06:43:27.111Z,11.93
2018-09-17T06:45:56.060Z,9.90
2018-09-17T06:48:24.854Z,8.63
2018-09-17T06:50:54.274Z,10.30
2018-09-17T06:53:22.891Z,10.00
2018-09-17T06:55:51.558Z,9.20
2018-09-17T06:58:20.554Z,9.57
2018-09-17T07:00:49.538Z,10.33
2018-09-17T07:03:18.233Z,9.33
2018-09-17T07:05:46.849Z,8.93
2018-09-17T07:08:15.620Z,8.30
2018-09-17T07:10:44.346Z,8.98
2018-09-17T07:13:13.067Z,7.80
2018-09-17T07:15:41.946Z,7.60
2018-09-17T07:18:10.723Z,7.80
2018-09-17T07:20:39.508Z,7.55
2018-09-17T07:23:08.227Z,7.50
2018-09-17T07:25:36.847Z,8.30
2018-09-17T07:28:05.915Z,8.53
2018-09-17T07:30:34.670Z,8.27
2018-09-17T07:33:03.369Z,7.80
2018-09-17T07:35:32.432Z,7.40
2018-09-17T07:38:01.100Z,6.80
2018-09-17T07:40:29.856Z,7.20
2018-09-17T07:42:58.437Z,8.23
2018-09-17T07:45:27.169Z,8.77
2018-09-17T07:47:56.723Z,7.42
2018-09-17T07:50:25.358Z,7.53
2018-09-17T07:52:54.051Z,7.40
2018-09-17T07:55:23.856Z,6.60
2018-09-17T07:57:52.804Z,7.00
2018-09-17T08:00:21.534Z,7.40
2018-09-17T08:02:50.441Z,7.43
2018-09-17T08:05:20.884Z,6.90
2018-09-17T08:07:49.896Z,7.20
2018-09-17T08:10:20.706Z,7.50
2018-09-17T08:12:50.898Z,6.50
2018-09-17T08:15:21.909Z,6.40
2018-09-17T08:17:52.702Z,6.77
2018-09-17T08:20:21.885Z,6.70
2018-09-17T08:22:51.523Z,7.23
2018-09-17T08:25:20.842Z,7.10
2018-09-17T08:27:50.385Z,7.00
2018-09-17T08:30:19.842Z,6.10
2018-09-17T08:32:49.556Z,5.70
2018-09-17T08:35:18.596Z,6.57
2018-09-17T08:37:47.728Z,5.83
2018-09-17T08:40:17.597Z,5.27
2018-09-17T08:42:46.962Z,6.10
2018-09-17T08:45:16.237Z,6.10
2018-09-17T08:47:46.501Z,6.20
2018-09-17T08:50:15.578Z,7.27
2018-09-17T08:52:44.657Z,5.47
2018-09-17T08:55:19.508Z,4.40
2018-09-17T08:57:54.266Z,5.20
2018-09-17T09:00:26.987Z,5.40
2018-09-17T09:03:01.032Z,6.03
2018-09-17T09:05:34.573Z,4.27
2018-09-17T09:08:03.307Z,4.13
2018-09-17T09:10:37.625Z,4.40
2018-09-17T09:13:24.661Z,3.97
2018-09-17T09:15:53.276Z,3.57
2018-09-17T09:18:22.105Z,4.10
2018-09-17T09:20:51.466Z,4.20
2018-09-17T09:23:20.607Z,4.27
2018-09-17T09:25:49.395Z,4.40
2018-09-17T09:28:18.209Z,5.87
2018-09-17T09:30:47.050Z,4.13
2018-09-17T09:33:16.100Z,4.40
2018-09-17T09:35:45.414Z,3.80
2018-09-17T09:38:14.441Z,5.10
2018-09-17T09:40:43.279Z,3.40
2018-09-17T09:43:11.959Z,3.33
2018-09-17T09:45:41.091Z,3.13
2018-09-17T09:48:10.035Z,3.30
2018-09-17T09:50:38.795Z,3.13
2018-09-17T09:53:07.450Z,3.90
2018-09-17T09:55:36.324Z,4.23
2018-09-17T09:58:05.523Z,3.53
2018-09-17T10:00:40.435Z,3.30
2018-09-17T10:03:44.904Z,4.63
2018-09-17T10:06:15.281Z,4.77
2018-09-17T10:08:49.808Z,3.97
2018-09-17T10:11:23.702Z,3.80
2018-09-17T10:13:58.270Z,4.00
2018-09-17T10:16:26.974Z,4.03
2018-09-17T10:19:00.914Z,3.33
2018-09-17T10:21:29.597Z,3.30
2018-09-17T10:23:58.407Z,3.17
2018-09-17T10:26:27.320Z,3.57
2018-09-17T10:28:55.977Z,3.50
2018-09-17T10:31:25.044Z,3.60
2018-09-17T10:33:53.954Z,3.67
2018-09-17T10:36:23.953Z,4.00
2018-09-17T10:38:52.847Z,3.50
2018-09-17T10:41:21.716Z,3.47
2018-09-17T10:43:50.785Z,4.03
2018-09-17T10:46:19.876Z,3.70
2018-09-17T10:48:48.840Z,3.50
2018-09-17T10:51:17.695Z,4.00
2018-09-17T10:53:46.733Z,3.70
2018-09-17T10:56:15.261Z,3.40
2018-09-17T10:58:44.027Z,3.40
2018-09-17T11:01:12.877Z,3.53
2018-09-17T11:03:41.588Z,3.87
2018-09-17T11:06:10.199Z,3.40
2018-09-17T11:08:38.748Z,3.67
2018-09-17T11:11:07.710Z,4.13
2018-09-17T11:13:36.214Z,4.47
2018-09-17T11:16:05.140Z,4.67
2018-09-17T11:18:34.494Z,4.43
2018-09-17T11:21:03.326Z,4.83
2018-09-17T11:23:31.947Z,4.20
2018-09-17T11:26:00.649Z,3.50
2018-09-17T11:28:29.582Z,3.40
2018-09-17T11:30:58.346Z,3.47
2018-09-17T11:33:26.965Z,3.23
2018-09-17T11:35:55.881Z,3.60
2018-09-17T11:38:24.738Z,4.57
2018-09-17T11:40:53.316Z,3.80
2018-09-17T11:43:26.763Z,3.67
2018-09-17T11:46:00.087Z,3.97
2018-09-17T11:48:32.467Z,3.80
2018-09-17T11:51:01.218Z,3.50
2018-09-17T11:53:37.142Z,4.03
2018-09-17T11:56:22.020Z,3.80
2018-09-17T12:01:59.386Z,4.93
2018-09-17T12:16:02.024Z,3.70
2018-09-17T12:21:24.345Z,6.60
2018-09-17T12:23:53.252Z,5.23
2018-09-17T12:26:22.021Z,4.30
2018-09-17T12:28:56.858Z,4.23
2018-09-17T12:31:26.006Z,3.90
2018-09-17T12:33:55.906Z,4.23
2018-09-17T12:36:24.789Z,4.03
2018-09-17T12:39:01.610Z,5.00
2018-09-17T12:41:33.169Z,4.17
2018-09-17T12:49:49.929Z,4.43
2018-09-17T12:52:21.286Z,4.30
2018-09-17T12:54:50.113Z,4.43
2018-09-17T12:57:25.948Z,3.60
2018-09-17T12:59:57.711Z,4.10
2018-09-17T13:02:28.192Z,4.13
2018-09-17T13:04:58.178Z,4.40
2018-09-17T13:07:33.202Z,5.40
2018-09-17T13:10:02.709Z,5.07
2018-09-17T13:12:31.582Z,4.97
2018-09-17T13:15:00.326Z,4.43
2018-09-17T13:17:29.013Z,4.33
2018-09-17T13:19:57.997Z,5.30
2018-09-17T13:22:28.239Z,4.53
2018-09-17T13:25:01.726Z,4.50
2018-09-17T13:27:30.186Z,4.87
2018-09-17T13:29:59.690Z,4.43
2018-09-17T13:32:28.615Z,4.17
2018-09-17T13:34:57.883Z,4.50
2018-09-17T13:40:19.769Z,3.73
2018-09-17T13:42:48.958Z,5.00
2018-09-17T13:45:17.925Z,4.50
2018-09-17T13:47:46.747Z,4.07
2018-09-17T13:50:15.849Z,4.60
2018-09-17T13:52:49.000Z,4.10
2018-09-17T13:55:18.810Z,5.20
2018-09-17T13:57:47.704Z,4.23
2018-09-17T14:00:23.175Z,4.57
2018-09-17T14:02:58.409Z,4.20
2018-09-17T14:05:27.749Z,3.83
2018-09-17T14:07:56.649Z,4.70
2018-09-17T14:13:18.508Z,3.87
2018-09-17T14:15:53.972Z,4.40
2018-09-17T14:18:23.130Z,3.90
2018-09-17T14:20:52.686Z,4.00
2018-09-17T14:23:22.385Z,4.13
2018-09-17T14:25:52.778Z,4.40
2018-09-17T14:28:30.640Z,4.30
2018-09-17T14:31:01.309Z,3.77
2018-09-17T14:33:39.726Z,3.97
2018-09-17T14:36:10.944Z,4.03
2018-09-17T14:38:50.762Z,4.10
2018-09-17T14:41:23.826Z,4.33
2018-09-17T14:43:54.602Z,3.80
2018-09-17T14:46:23.819Z,4.23
2018-09-17T14:48:52.992Z,4.53
2018-09-17T14:51:24.219Z,4.27
2018-09-17T14:53:54.595Z,4.97
2018-09-17T14:56:25.047Z,5.37
2018-09-17T14:58:53.907Z,4.83
2018-09-17T15:01:24.710Z,4.40
2018-09-17T15:12:33.836Z,4.23
2018-09-17T15:15:04.859Z,4.90
2018-09-17T15:17:33.915Z,4.53
2018-09-17T15:20:05.436Z,4.97
2018-09-17T15:22:34.933Z,4.27
2018-09-17T15:25:03.669Z,4.57
2018-09-17T15:27:33.212Z,4.67
2018-09-17T15:30:02.130Z,4.83
2018-09-17T15:32:31.574Z,4.13
2018-09-17T15:35:00.229Z,4.10
2018-09-17T15:37:29.251Z,4.83
2018-09-17T15:39:57.938Z,4.20
2018-09-17T15:42:26.781Z,4.10
2018-09-17T15:44:55.463Z,4.73
2018-09-17T15:47:24.196Z,4.30
2018-09-17T15:49:52.791Z,4.12
2018-09-17T15:52:21.366Z,4.40
2018-09-17T15:54:50.144Z,3.93
2018-09-17T15:57:18.986Z,4.17
2018-09-17T15:59:47.856Z,3.80
2018-09-17T16:02:16.714Z,3.63
2018-09-17T16:04:45.821Z,4.60
2018-09-17T16:07:15.243Z,4.00
2018-09-17T16:09:43.965Z,4.20
2018-09-17T16:12:14.109Z,4.77
2018-09-17T16:14:43.234Z,4.57
2018-09-17T16:19:41.402Z,5.20
2018-09-17T16:22:10.552Z,4.90
2018-09-17T16:24:39.761Z,4.65
2018-09-17T16:27:08.503Z,4.50
2018-09-17T16:29:37.549Z,3.80
2018-09-17T16:32:06.760Z,4.60
2018-09-17T16:34:35.556Z,4.50
2018-09-17T16:37:04.396Z,4.20
2018-09-17T16:39:33.366Z,4.00
2018-09-17T16:42:02.384Z,4.20
2018-09-17T16:47:00.185Z,4.30
2018-09-17T16:49:29.457Z,4.50
2018-09-17T17:09:17.697Z,4.40
2018-09-17T17:11:46.645Z,4.60
2018-09-17T17:14:15.675Z,4.80
2018-09-17T17:16:44.830Z,4.80
2018-09-17T17:19:14.336Z,4.50
2018-09-17T17:21:44.154Z,6.30
2018-09-17T17:26:41.691Z,5.75
2018-09-17T17:41:33.617Z,6.70
2018-09-17T17:56:26.181Z,7.30
2018-09-17T19:21:02.199Z,8.00
2018-09-17T19:59:01.528Z,9.40
2018-09-17T20:36:10.060Z,8.03
2018-09-17T20:38:39.188Z,7.95
2018-09-17T20:41:08.029Z,8.90
2018-09-17T20:43:37.338Z,8.77
2018-09-17T20:46:06.303Z,7.80
2018-09-17T21:05:53.445Z,8.00
2018-09-17T21:18:17.989Z,8.43
2018-09-17T21:20:46.909Z,7.60
2018-09-17T21:23:16.127Z,7.90
2018-09-17T21:25:46.109Z,8.63
2018-09-17T21:28:14.948Z,7.67
2018-09-17T21:30:43.915Z,7.23
2018-09-17T21:33:12.626Z,7.33
2018-09-17T21:35:41.245Z,8.90
2018-09-17T21:38:10.688Z,8.00
2018-09-17T21:40:39.792Z,7.63
2018-09-17T21:43:09.368Z,7.30
2018-09-17T21:45:51.554Z,6.70
2018-09-17T21:48:22.085Z,7.03
2018-09-17T21:50:50.979Z,6.60
2018-09-17T21:53:20.329Z,7.30
2018-09-17T21:55:49.448Z,7.40
2018-09-17T21:58:19.310Z,7.73
2018-09-17T22:00:53.827Z,7.80
2018-09-17T22:03:22.666Z,7.20
2018-09-17T22:05:52.106Z,7.57
2018-09-17T22:08:23.022Z,7.60
2018-09-17T22:10:52.817Z,7.30
2018-09-17T22:13:22.538Z,7.20
2018-09-17T22:15:52.420Z,7.93
2018-09-17T22:18:21.544Z,7.47
2018-09-17T22:20:51.568Z,7.70
2018-09-17T22:23:21.148Z,8.07
2018-09-17T22:25:51.197Z,7.80
2018-09-17T22:28:22.201Z,8.10
2018-09-17T22:30:51.067Z,7.70
2018-09-17T22:33:20.918Z,7.80
2018-09-17T22:35:49.526Z,6.90
2018-09-17T22:38:19.057Z,7.30
2018-09-17T22:40:48.084Z,7.40
2018-09-17T22:43:16.813Z,8.27
2018-09-17T22:45:46.087Z,7.50
2018-09-17T22:50:44.816Z,7.80
2018-09-17T23:10:34.007Z,7.50
2018-09-17T23:13:03.270Z,8.23
2018-09-17T23:15:32.110Z,8.70
2018-09-17T23:18:01.017Z,9.40
2018-09-17T23:20:30.348Z,8.10
2018-09-17T23:22:59.653Z,8.53
2018-09-17T23:25:29.387Z,10.20
2018-09-17T23:27:59.454Z,8.43
2018-09-17T23:30:29.042Z,9.50
2018-09-17T23:32:58.704Z,8.70
2018-09-17T23:47:52.986Z,9.93
2018-09-17T23:50:22.161Z,9.90
2018-09-17T23:55:21.671Z,9.70
